sensor_id;sensor_type;location;lat;lon;timestamp;pressure;altitude;pressure_sealevel;temperature
40199;BMP280;25906;43.536;26.068;2022-07-23T00:00:25;98677.53;;;21.58
40199;BMP280;25906;43.536;26.068;2022-07-23T00:03:11;98684.22;;;21.51
40199;BMP280;25906;43.536;26.068;2022-07-23T00:05:56;98682.00;;;21.43
40199;BMP280;25906;43.536;26.068;2022-07-23T00:08:42;98681.66;;;21.33
40199;BMP280;25906;43.536;26.068;2022-07-23T00:11:28;98681.66;;;21.33
40199;BMP280;25906;43.536;26.068;2022-07-23T00:14:14;98685.34;;;21.42
40199;BMP280;25906;43.536;26.068;2022-07-23T00:16:59;98674.91;;;21.36
40199;BMP280;25906;43.536;26.068;2022-07-23T00:19:46;98678.28;;;21.35
40199;BMP280;25906;43.536;26.068;2022-07-23T00:22:32;98677.47;;;21.30
40199;BMP280;25906;43.536;26.068;2022-07-23T00:25:18;98680.91;;;21.31
40199;BMP280;25906;43.536;26.068;2022-07-23T00:28:04;98676.72;;;21.28
40199;BMP280;25906;43.536;26.068;2022-07-23T00:30:50;98678.75;;;21.27
40199;BMP280;25906;43.536;26.068;2022-07-23T00:33:36;98673.13;;;21.24
40199;BMP280;25906;43.536;26.068;2022-07-23T00:36:25;98675.28;;;21.27
40199;BMP280;25906;43.536;26.068;2022-07-23T00:39:11;98677.19;;;21.21
40199;BMP280;25906;43.536;26.068;2022-07-23T00:41:56;98673.44;;;21.10
40199;BMP280;25906;43.536;26.068;2022-07-23T00:44:42;98680.47;;;21.15
40199;BMP280;25906;43.536;26.068;2022-07-23T00:47:29;98682.41;;;21.11
40199;BMP280;25906;43.536;26.068;2022-07-23T00:50:15;98681.75;;;21.12
40199;BMP280;25906;43.536;26.068;2022-07-23T00:53:00;98685.63;;;21.03
40199;BMP280;25906;43.536;26.068;2022-07-23T00:55:47;98684.88;;;21.01
40199;BMP280;25906;43.536;26.068;2022-07-23T00:58:35;98684.78;;;20.99
40199;BMP280;25906;43.536;26.068;2022-07-23T01:01:21;98682.03;;;20.99
40199;BMP280;25906;43.536;26.068;2022-07-23T01:04:06;98681.84;;;20.93
40199;BMP280;25906;43.536;26.068;2022-07-23T01:06:52;98675.53;;;20.88
40199;BMP280;25906;43.536;26.068;2022-07-23T01:09:38;98674.00;;;20.84
40199;BMP280;25906;43.536;26.068;2022-07-23T01:12:24;98677.06;;;20.93
40199;BMP280;25906;43.536;26.068;2022-07-23T01:15:09;98682.50;;;20.91
40199;BMP280;25906;43.536;26.068;2022-07-23T01:17:55;98678.34;;;20.90
40199;BMP280;25906;43.536;26.068;2022-07-23T01:20:41;98682.00;;;20.97
40199;BMP280;25906;43.536;26.068;2022-07-23T01:23:27;98679.28;;;20.99
40199;BMP280;25906;43.536;26.068;2022-07-23T01:26:12;98681.44;;;21.02
40199;BMP280;25906;43.536;26.068;2022-07-23T01:29:02;98683.50;;;21.02
40199;BMP280;25906;43.536;26.068;2022-07-23T01:31:48;98677.72;;;20.92
40199;BMP280;25906;43.536;26.068;2022-07-23T01:34:33;98674.31;;;20.93
40199;BMP280;25906;43.536;26.068;2022-07-23T01:37:19;98678.88;;;20.85
40199;BMP280;25906;43.536;26.068;2022-07-23T01:40:06;98668.94;;;20.76
40199;BMP280;25906;43.536;26.068;2022-07-23T01:42:52;98672.47;;;20.79
40199;BMP280;25906;43.536;26.068;2022-07-23T01:45:38;98672.28;;;20.73
40199;BMP280;25906;43.536;26.068;2022-07-23T01:48:23;98674.41;;;20.74
40199;BMP280;25906;43.536;26.068;2022-07-23T01:51:09;98672.19;;;20.69
40199;BMP280;25906;43.536;26.068;2022-07-23T01:53:55;98680.31;;;20.65
40199;BMP280;25906;43.536;26.068;2022-07-23T01:56:41;98671.28;;;20.62
40199;BMP280;25906;43.536;26.068;2022-07-23T01:59:27;98677.31;;;20.57
40199;BMP280;25906;43.536;26.068;2022-07-23T02:02:13;98677.31;;;20.57
40199;BMP280;25906;43.536;26.068;2022-07-23T02:04:59;98675.19;;;20.55
40199;BMP280;25906;43.536;26.068;2022-07-23T02:07:44;98675.06;;;20.51
40199;BMP280;25906;43.536;26.068;2022-07-23T02:10:30;98680.50;;;20.49
40199;BMP280;25906;43.536;26.068;2022-07-23T02:13:16;98683.44;;;20.55
40199;BMP280;25906;43.536;26.068;2022-07-23T02:16:02;98683.25;;;20.49
40199;BMP280;25906;43.536;26.068;2022-07-23T02:18:48;98677.75;;;20.49
40199;BMP280;25906;43.536;26.068;2022-07-23T02:21:33;98678.44;;;20.50
40199;BMP280;25906;43.536;26.068;2022-07-23T02:24:19;98678.91;;;20.43
40199;BMP280;25906;43.536;26.068;2022-07-23T02:27:05;98675.91;;;20.35
40199;BMP280;25906;43.536;26.068;2022-07-23T02:29:51;98682.81;;;20.36
40199;BMP280;25906;43.536;26.068;2022-07-23T02:32:37;98675.06;;;20.30
40199;BMP280;25906;43.536;26.068;2022-07-23T02:35:23;98680.94;;;20.21
40199;BMP280;25906;43.536;26.068;2022-07-23T02:38:09;98682.84;;;20.16
40199;BMP280;25906;43.536;26.068;2022-07-23T02:40:54;98686.72;;;20.09
40199;BMP280;25906;43.536;26.068;2022-07-23T02:43:40;98687.66;;;20.16
40199;BMP280;25906;43.536;26.068;2022-07-23T02:46:26;98688.13;;;20.10
40199;BMP280;25906;43.536;26.068;2022-07-23T02:49:12;98686.50;;;20.04
40199;BMP280;25906;43.536;26.068;2022-07-23T02:51:57;98687.72;;;19.99
40199;BMP280;25906;43.536;26.068;2022-07-23T02:54:43;98682.31;;;20.01
40199;BMP280;25906;43.536;26.068;2022-07-23T02:57:29;98689.13;;;20.00
40199;BMP280;25906;43.536;26.068;2022-07-23T03:00:15;98696.69;;;19.99
40199;BMP280;25906;43.536;26.068;2022-07-23T03:03:01;98698.72;;;19.99
40199;BMP280;25906;43.536;26.068;2022-07-23T03:05:47;98694.09;;;19.84
40199;BMP280;25906;43.536;26.068;2022-07-23T03:08:33;98694.22;;;19.88
40199;BMP280;25906;43.536;26.068;2022-07-23T03:11:18;98701.13;;;19.89
40199;BMP280;25906;43.536;26.068;2022-07-23T03:14:04;98704.78;;;19.95
40199;BMP280;25906;43.536;26.068;2022-07-23T03:16:51;98710.03;;;19.87
40199;BMP280;25906;43.536;26.068;2022-07-23T03:19:37;98709.78;;;20.01
40199;BMP280;25906;43.536;26.068;2022-07-23T03:22:23;98701.34;;;19.95
40199;BMP280;25906;43.536;26.068;2022-07-23T03:25:10;98704.78;;;19.95
40199;BMP280;25906;43.536;26.068;2022-07-23T03:27:55;98704.44;;;20.05
40199;BMP280;25906;43.536;26.068;2022-07-23T03:30:42;98710.66;;;20.05
40199;BMP280;25906;43.536;26.068;2022-07-23T03:33:28;98705.56;;;20.17
40199;BMP280;25906;43.536;26.068;2022-07-23T03:36:14;98705.88;;;20.27
40199;BMP280;25906;43.536;26.068;2022-07-23T03:38:59;98707.72;;;20.40
40199;BMP280;25906;43.536;26.068;2022-07-23T03:41:45;98703.84;;;20.48
40199;BMP280;25906;43.536;26.068;2022-07-23T03:44:31;98701.09;;;20.70
40199;BMP280;25906;43.536;26.068;2022-07-23T03:47:17;98707.41;;;20.95
40199;BMP280;25906;43.536;26.068;2022-07-23T03:50:03;98706.84;;;21.22
40199;BMP280;25906;43.536;26.068;2022-07-23T03:52:49;98708.34;;;21.50
40199;BMP280;25906;43.536;26.068;2022-07-23T03:55:34;98711.16;;;21.77
40199;BMP280;25906;43.536;26.068;2022-07-23T03:58:20;98709.75;;;22.02
40199;BMP280;25906;43.536;26.068;2022-07-23T04:01:06;98704.81;;;22.25
40199;BMP280;25906;43.536;26.068;2022-07-23T04:03:52;98709.19;;;22.34
40199;BMP280;25906;43.536;26.068;2022-07-23T04:06:37;98705.59;;;22.57
40199;BMP280;25906;43.536;26.068;2022-07-23T04:09:23;98713.66;;;22.76
40199;BMP280;25906;43.536;26.068;2022-07-23T04:12:09;98703.72;;;22.96
40199;BMP280;25906;43.536;26.068;2022-07-23T04:14:55;98704.41;;;22.97
40199;BMP280;25906;43.536;26.068;2022-07-23T04:17:40;98708.47;;;22.92
40199;BMP280;25906;43.536;26.068;2022-07-23T04:20:40;98709.59;;;23.12
40199;BMP280;25906;43.536;26.068;2022-07-23T04:23:26;98714.88;;;23.33
40199;BMP280;25906;43.536;26.068;2022-07-23T04:26:12;98719.44;;;23.54
40199;BMP280;25906;43.536;26.068;2022-07-23T04:28:57;98725.84;;;23.64
40199;BMP280;25906;43.536;26.068;2022-07-23T04:31:43;98718.34;;;23.69
40199;BMP280;25906;43.536;26.068;2022-07-23T04:34:29;98725.28;;;23.70
40199;BMP280;25906;43.536;26.068;2022-07-23T04:37:15;98716.53;;;23.83
40199;BMP280;25906;43.536;26.068;2022-07-23T04:40:00;98722.84;;;23.89
40199;BMP280;25906;43.536;26.068;2022-07-23T04:42:46;98727.16;;;23.96
40199;BMP280;25906;43.536;26.068;2022-07-23T04:45:32;98732.66;;;23.94
40199;BMP280;25906;43.536;26.068;2022-07-23T04:48:17;98739.56;;;23.93
40199;BMP280;25906;43.536;26.068;2022-07-23T04:51:03;98727.88;;;23.97
40199;BMP280;25906;43.536;26.068;2022-07-23T04:53:49;98731.88;;;23.90
40199;BMP280;25906;43.536;26.068;2022-07-23T04:56:35;98734.88;;;24.02
40199;BMP280;25906;43.536;26.068;2022-07-23T04:59:21;98739.66;;;23.62
40199;BMP280;25906;43.536;26.068;2022-07-23T05:02:06;98738.25;;;23.61
40199;BMP280;25906;43.536;26.068;2022-07-23T05:04:52;98738.19;;;23.94
40199;BMP280;25906;43.536;26.068;2022-07-23T05:07:38;98738.16;;;23.92
40199;BMP280;25906;43.536;26.068;2022-07-23T05:10:24;98749.53;;;24.10
40199;BMP280;25906;43.536;26.068;2022-07-23T05:13:09;98752.84;;;24.42
40199;BMP280;25906;43.536;26.068;2022-07-23T05:15:55;98754.56;;;24.64
40199;BMP280;25906;43.536;26.068;2022-07-23T05:18:41;98759.00;;;24.83
40199;BMP280;25906;43.536;26.068;2022-07-23T05:21:26;98757.31;;;25.09
40199;BMP280;25906;43.536;26.068;2022-07-23T05:24:19;98758.28;;;25.30
40199;BMP280;25906;43.536;26.068;2022-07-23T05:27:05;98759.97;;;25.54
40199;BMP280;25906;43.536;26.068;2022-07-23T05:29:50;98757.41;;;25.76
40199;BMP280;25906;43.536;26.068;2022-07-23T05:32:36;98754.81;;;25.94
40199;BMP280;25906;43.536;26.068;2022-07-23T05:35:22;98757.84;;;26.19
40199;BMP280;25906;43.536;26.068;2022-07-23T05:38:08;98756.53;;;26.30
40199;BMP280;25906;43.536;26.068;2022-07-23T05:40:54;98753.16;;;26.42
40199;BMP280;25906;43.536;26.068;2022-07-23T05:43:39;98761.56;;;26.57
40199;BMP280;25906;43.536;26.068;2022-07-23T05:46:25;98764.47;;;26.73
40199;BMP280;25906;43.536;26.068;2022-07-23T05:49:11;98773.59;;;26.89
40199;BMP280;25906;43.536;26.068;2022-07-23T05:51:57;98780.66;;;27.02
40199;BMP280;25906;43.536;26.068;2022-07-23T05:54:43;98778.66;;;27.24
40199;BMP280;25906;43.536;26.068;2022-07-23T05:57:29;98784.31;;;27.46
40199;BMP280;25906;43.536;26.068;2022-07-23T06:00:14;98781.59;;;27.64
40199;BMP280;25906;43.536;26.068;2022-07-23T06:03:00;98781.59;;;27.80
40199;BMP280;25906;43.536;26.068;2022-07-23T06:05:46;98778.16;;;27.95
40199;BMP280;25906;43.536;26.068;2022-07-23T06:08:32;98783.00;;;28.00
40199;BMP280;25906;43.536;26.068;2022-07-23T06:11:18;98776.06;;;28.07
40199;BMP280;25906;43.536;26.068;2022-07-23T06:14:04;98787.22;;;28.13
40199;BMP280;25906;43.536;26.068;2022-07-23T06:16:50;98786.53;;;28.34
40199;BMP280;25906;43.536;26.068;2022-07-23T06:19:35;98782.31;;;28.55
40199;BMP280;25906;43.536;26.068;2022-07-23T06:22:21;98787.88;;;28.63
40199;BMP280;25906;43.536;26.068;2022-07-23T06:25:07;98786.44;;;28.80
40199;BMP280;25906;43.536;26.068;2022-07-23T06:27:53;98789.88;;;28.92
40199;BMP280;25906;43.536;26.068;2022-07-23T06:30:39;98789.81;;;29.16
40199;BMP280;25906;43.536;26.068;2022-07-23T06:33:25;98784.13;;;29.33
40199;BMP280;25906;43.536;26.068;2022-07-23T06:36:11;98787.53;;;29.55
40199;BMP280;25906;43.536;26.068;2022-07-23T06:38:56;98793.00;;;29.69
40199;BMP280;25906;43.536;26.068;2022-07-23T06:41:42;98795.00;;;29.85
40199;BMP280;25906;43.536;26.068;2022-07-23T06:44:28;98800.50;;;29.98
40199;BMP280;25906;43.536;26.068;2022-07-23T06:47:14;98800.41;;;30.10
40199;BMP280;25906;43.536;26.068;2022-07-23T06:50:00;98791.16;;;30.25
40199;BMP280;25906;43.536;26.068;2022-07-23T06:52:45;98795.13;;;30.48
40199;BMP280;25906;43.536;26.068;2022-07-23T06:55:31;98795.25;;;30.40
40199;BMP280;25906;43.536;26.068;2022-07-23T06:58:17;98798.78;;;30.35
40199;BMP280;25906;43.536;26.068;2022-07-23T07:01:11;98806.41;;;30.42
40199;BMP280;25906;43.536;26.068;2022-07-23T07:03:57;98795.84;;;30.49
40199;BMP280;25906;43.536;26.068;2022-07-23T07:06:50;98798.75;;;30.39
40199;BMP280;25906;43.536;26.068;2022-07-23T07:09:36;98805.66;;;30.48
40199;BMP280;25906;43.536;26.068;2022-07-23T07:12:22;98795.06;;;30.56
40199;BMP280;25906;43.536;26.068;2022-07-23T07:15:08;98805.41;;;30.69
40199;BMP280;25906;43.536;26.068;2022-07-23T07:17:54;98799.63;;;30.87
40199;BMP280;25906;43.536;26.068;2022-07-23T07:20:42;98804.13;;;31.20
40199;BMP280;25906;43.536;26.068;2022-07-23T07:23:29;98802.50;;;31.37
40199;BMP280;25906;43.536;26.068;2022-07-23T07:26:15;98808.03;;;31.41
40199;BMP280;25906;43.536;26.068;2022-07-23T07:29:02;98803.47;;;31.16
40199;BMP280;25906;43.536;26.068;2022-07-23T07:31:48;98802.94;;;31.01
40199;BMP280;25906;43.536;26.068;2022-07-23T07:34:34;98799.03;;;30.81
40199;BMP280;25906;43.536;26.068;2022-07-23T07:37:20;98804.56;;;31.38
40199;BMP280;25906;43.536;26.068;2022-07-23T07:40:07;98804.88;;;31.68
40199;BMP280;25906;43.536;26.068;2022-07-23T07:42:53;98803.78;;;31.91
40199;BMP280;25906;43.536;26.068;2022-07-23T07:45:40;98798.91;;;31.90
40199;BMP280;25906;43.536;26.068;2022-07-23T07:48:25;98788.00;;;32.12
40199;BMP280;25906;43.536;26.068;2022-07-23T07:51:11;98794.06;;;32.26
40199;BMP280;25906;43.536;26.068;2022-07-23T07:53:57;98796.63;;;32.40
40199;BMP280;25906;43.536;26.068;2022-07-23T07:56:44;98798.66;;;32.46
40199;BMP280;25906;43.536;26.068;2022-07-23T07:59:30;98797.69;;;32.59
40199;BMP280;25906;43.536;26.068;2022-07-23T08:02:16;98794.69;;;32.69
40199;BMP280;25906;43.536;26.068;2022-07-23T08:05:02;98791.94;;;32.99
40199;BMP280;25906;43.536;26.068;2022-07-23T08:07:48;98798.41;;;33.23
40199;BMP280;25906;43.536;26.068;2022-07-23T08:10:34;98799.56;;;33.36
40199;BMP280;25906;43.536;26.068;2022-07-23T08:13:20;98793.19;;;33.38
40199;BMP280;25906;43.536;26.068;2022-07-23T08:16:06;98789.63;;;33.69
40199;BMP280;25906;43.536;26.068;2022-07-23T08:18:53;98792.00;;;33.87
40199;BMP280;25906;43.536;26.068;2022-07-23T08:21:45;98789.59;;;33.71
40199;BMP280;25906;43.536;26.068;2022-07-23T08:24:38;98788.38;;;33.90
40199;BMP280;25906;43.536;26.068;2022-07-23T08:27:25;98778.50;;;33.93
40199;BMP280;25906;43.536;26.068;2022-07-23T08:30:11;98783.41;;;33.93
40199;BMP280;25906;43.536;26.068;2022-07-23T08:35:48;98771.63;;;34.14
40199;BMP280;25906;43.536;26.068;2022-07-23T08:38:36;98777.44;;;33.78
40199;BMP280;25906;43.536;26.068;2022-07-23T08:41:23;98779.63;;;33.76
40199;BMP280;25906;43.536;26.068;2022-07-23T08:44:10;98780.22;;;33.80
40199;BMP280;25906;43.536;26.068;2022-07-23T08:46:57;98782.28;;;33.54
40199;BMP280;25906;43.536;26.068;2022-07-23T08:49:43;98781.72;;;34.04
40199;BMP280;25906;43.536;26.068;2022-07-23T08:52:30;98774.47;;;34.12
40199;BMP280;25906;43.536;26.068;2022-07-23T08:55:18;98775.00;;;34.19
40199;BMP280;25906;43.536;26.068;2022-07-23T08:58:05;98777.91;;;34.15
40199;BMP280;25906;43.536;26.068;2022-07-23T09:00:55;98768.31;;;33.80
40199;BMP280;25906;43.536;26.068;2022-07-23T09:03:44;98771.03;;;34.36
40199;BMP280;25906;43.536;26.068;2022-07-23T09:06:30;98773.00;;;34.66
40199;BMP280;25906;43.536;26.068;2022-07-23T09:09:18;98772.41;;;34.85
40199;BMP280;25906;43.536;26.068;2022-07-23T09:12:09;98773.25;;;34.56
40199;BMP280;25906;43.536;26.068;2022-07-23T09:14:55;98767.09;;;34.25
40199;BMP280;25906;43.536;26.068;2022-07-23T09:17:48;98763.78;;;34.67
40199;BMP280;25906;43.536;26.068;2022-07-23T09:20:39;98762.41;;;34.90
40199;BMP280;25906;43.536;26.068;2022-07-23T09:24:08;98763.28;;;35.07
40199;BMP280;25906;43.536;26.068;2022-07-23T09:26:56;98759.16;;;35.04
40199;BMP280;25906;43.536;26.068;2022-07-23T09:29:55;98763.72;;;34.93
40199;BMP280;25906;43.536;26.068;2022-07-23T09:32:44;98761.91;;;35.28
40199;BMP280;25906;43.536;26.068;2022-07-23T09:36:03;98755.31;;;35.35
40199;BMP280;25906;43.536;26.068;2022-07-23T09:38:55;98760.06;;;35.63
40199;BMP280;25906;43.536;26.068;2022-07-23T09:41:45;98749.88;;;35.72
40199;BMP280;25906;43.536;26.068;2022-07-23T09:44:41;98752.50;;;35.78
40199;BMP280;25906;43.536;26.068;2022-07-23T09:47:32;98754.72;;;35.75
40199;BMP280;25906;43.536;26.068;2022-07-23T09:50:20;98754.94;;;35.47
40199;BMP280;25906;43.536;26.068;2022-07-23T09:53:23;98749.53;;;35.61
40199;BMP280;25906;43.536;26.068;2022-07-23T09:56:20;98748.28;;;35.14
40199;BMP280;25906;43.536;26.068;2022-07-23T09:59:29;98748.63;;;35.47
40199;BMP280;25906;43.536;26.068;2022-07-23T10:02:18;98754.25;;;35.47
40199;BMP280;25906;43.536;26.068;2022-07-23T10:05:07;98748.38;;;35.75
40199;BMP280;25906;43.536;26.068;2022-07-23T10:07:54;98752.03;;;36.12
40199;BMP280;25906;43.536;26.068;2022-07-23T10:10:40;98750.50;;;35.74
40199;BMP280;25906;43.536;26.068;2022-07-23T10:13:27;98746.38;;;35.51
40199;BMP280;25906;43.536;26.068;2022-07-23T10:16:19;98734.13;;;35.16
40199;BMP280;25906;43.536;26.068;2022-07-23T10:19:05;98738.94;;;35.20
40199;BMP280;25906;43.536;26.068;2022-07-23T10:21:58;98738.69;;;34.83
40199;BMP280;25906;43.536;26.068;2022-07-23T10:25:08;98730.47;;;34.75
40199;BMP280;25906;43.536;26.068;2022-07-23T10:28:30;98732.97;;;34.85
40199;BMP280;25906;43.536;26.068;2022-07-23T10:34:50;98729.31;;;34.91
40199;BMP280;25906;43.536;26.068;2022-07-23T10:37:44;98725.06;;;34.92
40199;BMP280;25906;43.536;26.068;2022-07-23T10:40:31;98722.03;;;34.98
40199;BMP280;25906;43.536;26.068;2022-07-23T10:43:19;98722.53;;;35.26
40199;BMP280;25906;43.536;26.068;2022-07-23T10:46:22;98717.78;;;35.21
40199;BMP280;25906;43.536;26.068;2022-07-23T10:49:29;98714.88;;;34.78
40199;BMP280;25906;43.536;26.068;2022-07-23T10:52:17;98712.47;;;34.89
40199;BMP280;25906;43.536;26.068;2022-07-23T10:58:04;98692.78;;;35.31
40199;BMP280;25906;43.536;26.068;2022-07-23T11:00:56;98680.53;;;35.61
40199;BMP280;25906;43.536;26.068;2022-07-23T11:03:57;98690.13;;;35.67
40199;BMP280;25906;43.536;26.068;2022-07-23T11:09:41;98679.59;;;35.86
40199;BMP280;25906;43.536;26.068;2022-07-23T11:15:16;98678.97;;;35.23
40199;BMP280;25906;43.536;26.068;2022-07-23T11:18:01;98688.09;;;35.24
40199;BMP280;25906;43.536;26.068;2022-07-23T11:20:48;98682.78;;;35.14
40199;BMP280;25906;43.536;26.068;2022-07-23T11:27:06;98668.94;;;35.28
40199;BMP280;25906;43.536;26.068;2022-07-23T11:29:54;98675.75;;;35.13
40199;BMP280;25906;43.536;26.068;2022-07-23T11:36:03;98671.19;;;35.24
40199;BMP280;25906;43.536;26.068;2022-07-23T11:38:51;98667.22;;;35.17
40199;BMP280;25906;43.536;26.068;2022-07-23T11:41:58;98671.53;;;35.56
40199;BMP280;25906;43.536;26.068;2022-07-23T11:44:46;98658.69;;;35.59
40199;BMP280;25906;43.536;26.068;2022-07-23T11:47:33;98652.41;;;35.97
40199;BMP280;25906;43.536;26.068;2022-07-23T11:50:23;98665.31;;;36.10
40199;BMP280;25906;43.536;26.068;2022-07-23T11:53:12;98658.53;;;36.03
40199;BMP280;25906;43.536;26.068;2022-07-23T11:56:07;98660.81;;;35.99
40199;BMP280;25906;43.536;26.068;2022-07-23T11:58:55;98655.91;;;35.97
40199;BMP280;25906;43.536;26.068;2022-07-23T12:01:59;98651.09;;;36.14
40199;BMP280;25906;43.536;26.068;2022-07-23T12:04:50;98648.06;;;36.36
40199;BMP280;25906;43.536;26.068;2022-07-23T12:07:40;98651.97;;;36.27
40199;BMP280;25906;43.536;26.068;2022-07-23T12:10:29;98640.88;;;35.85
40199;BMP280;25906;43.536;26.068;2022-07-23T12:13:18;98639.13;;;35.93
40199;BMP280;25906;43.536;26.068;2022-07-23T12:16:04;98629.88;;;36.33
40199;BMP280;25906;43.536;26.068;2022-07-23T12:18:52;98638.94;;;36.18
40199;BMP280;25906;43.536;26.068;2022-07-23T12:21:37;98639.47;;;36.04
40199;BMP280;25906;43.536;26.068;2022-07-23T12:24:23;98634.31;;;35.90
40199;BMP280;25906;43.536;26.068;2022-07-23T12:27:10;98626.34;;;36.33
40199;BMP280;25906;43.536;26.068;2022-07-23T12:29:57;98624.66;;;36.58
40199;BMP280;25906;43.536;26.068;2022-07-23T12:32:44;98624.03;;;36.55
40199;BMP280;25906;43.536;26.068;2022-07-23T12:35:34;98621.28;;;36.72
40199;BMP280;25906;43.536;26.068;2022-07-23T12:38:22;98618.47;;;36.72
40199;BMP280;25906;43.536;26.068;2022-07-23T12:41:08;98620.63;;;36.87
40199;BMP280;25906;43.536;26.068;2022-07-23T12:43:57;98618.72;;;36.11
40199;BMP280;25906;43.536;26.068;2022-07-23T12:46:50;98625.81;;;36.10
40199;BMP280;25906;43.536;26.068;2022-07-23T12:49:35;98622.59;;;36.02
40199;BMP280;25906;43.536;26.068;2022-07-23T12:52:21;98613.94;;;36.08
40199;BMP280;25906;43.536;26.068;2022-07-23T12:55:26;98612.31;;;36.13
40199;BMP280;25906;43.536;26.068;2022-07-23T12:58:16;98610.72;;;35.99
40199;BMP280;25906;43.536;26.068;2022-07-23T13:01:04;98602.66;;;36.08
40199;BMP280;25906;43.536;26.068;2022-07-23T13:06:58;98608.81;;;35.94
40199;BMP280;25906;43.536;26.068;2022-07-23T13:09:45;98611.88;;;35.88
40199;BMP280;25906;43.536;26.068;2022-07-23T13:12:31;98606.09;;;35.72
40199;BMP280;25906;43.536;26.068;2022-07-23T13:15:17;98596.31;;;35.89
40199;BMP280;25906;43.536;26.068;2022-07-23T13:18:03;98604.47;;;35.97
40199;BMP280;25906;43.536;26.068;2022-07-23T13:20:49;98599.81;;;36.08
40199;BMP280;25906;43.536;26.068;2022-07-23T13:23:35;98598.91;;;35.95
40199;BMP280;25906;43.536;26.068;2022-07-23T13:26:22;98598.53;;;36.05
40199;BMP280;25906;43.536;26.068;2022-07-23T13:29:08;98587.94;;;36.05
40199;BMP280;25906;43.536;26.068;2022-07-23T13:31:54;98587.75;;;35.91
40199;BMP280;25906;43.536;26.068;2022-07-23T13:34:40;98583.56;;;35.90
40199;BMP280;25906;43.536;26.068;2022-07-23T13:37:26;98577.78;;;35.94
40199;BMP280;25906;43.536;26.068;2022-07-23T13:40:12;98581.81;;;36.17
40199;BMP280;25906;43.536;26.068;2022-07-23T13:42:58;98577.00;;;36.32
40199;BMP280;25906;43.536;26.068;2022-07-23T13:45:44;98573.97;;;36.38
40199;BMP280;25906;43.536;26.068;2022-07-23T13:48:31;98578.00;;;36.24
40199;BMP280;25906;43.536;26.068;2022-07-23T13:51:16;98570.53;;;36.17
40199;BMP280;25906;43.536;26.068;2022-07-23T13:54:03;98573.06;;;36.07
40199;BMP280;25906;43.536;26.068;2022-07-23T13:56:49;98585.78;;;35.88
40199;BMP280;25906;43.536;26.068;2022-07-23T13:59:35;98574.53;;;35.67
40199;BMP280;25906;43.536;26.068;2022-07-23T14:02:21;98568.13;;;35.51
40199;BMP280;25906;43.536;26.068;2022-07-23T14:05:09;98565.84;;;35.55
40199;BMP280;25906;43.536;26.068;2022-07-23T14:07:56;98567.19;;;35.76
40199;BMP280;25906;43.536;26.068;2022-07-23T14:10:42;98567.84;;;35.77
40199;BMP280;25906;43.536;26.068;2022-07-23T14:13:28;98562.88;;;35.59
40199;BMP280;25906;43.536;26.068;2022-07-23T14:16:13;98561.69;;;35.52
40199;BMP280;25906;43.536;26.068;2022-07-23T14:18:59;98567.44;;;35.50
40199;BMP280;25906;43.536;26.068;2022-07-23T14:21:45;98566.06;;;35.29
40199;BMP280;25906;43.536;26.068;2022-07-23T14:24:31;98559.88;;;35.45
40199;BMP280;25906;43.536;26.068;2022-07-23T14:27:17;98555.53;;;35.48
40199;BMP280;25906;43.536;26.068;2022-07-23T14:30:04;98562.97;;;35.37
40199;BMP280;25906;43.536;26.068;2022-07-23T14:32:50;98556.38;;;35.24
40199;BMP280;25906;43.536;26.068;2022-07-23T14:35:39;98559.28;;;35.22
40199;BMP280;25906;43.536;26.068;2022-07-23T14:38:24;98558.63;;;34.99
40199;BMP280;25906;43.536;26.068;2022-07-23T14:41:10;98557.63;;;35.09
40199;BMP280;25906;43.536;26.068;2022-07-23T14:43:56;98559.41;;;34.98
40199;BMP280;25906;43.536;26.068;2022-07-23T14:46:42;98556.25;;;35.08
40199;BMP280;25906;43.536;26.068;2022-07-23T14:49:28;98549.66;;;35.15
40199;BMP280;25906;43.536;26.068;2022-07-23T14:52:14;98544.63;;;35.18
40199;BMP280;25906;43.536;26.068;2022-07-23T14:54:59;98549.31;;;35.05
40199;BMP280;25906;43.536;26.068;2022-07-23T14:57:46;98547.03;;;35.09
40199;BMP280;25906;43.536;26.068;2022-07-23T15:00:32;98550.81;;;35.02
40199;BMP280;25906;43.536;26.068;2022-07-23T15:03:17;98549.94;;;34.87
40199;BMP280;25906;43.536;26.068;2022-07-23T15:06:04;98547.78;;;34.88
40199;BMP280;25906;43.536;26.068;2022-07-23T15:08:50;98544.97;;;34.88
40199;BMP280;25906;43.536;26.068;2022-07-23T15:11:36;98535.75;;;34.69
40199;BMP280;25906;43.536;26.068;2022-07-23T15:14:23;98545.56;;;34.70
40199;BMP280;25906;43.536;26.068;2022-07-23T15:17:09;98546.53;;;34.83
40199;BMP280;25906;43.536;26.068;2022-07-23T15:19:55;98542.44;;;34.80
40199;BMP280;25906;43.536;26.068;2022-07-23T15:22:41;98545.13;;;34.84
40199;BMP280;25906;43.536;26.068;2022-07-23T15:25:27;98537.97;;;34.87
40199;BMP280;25906;43.536;26.068;2022-07-23T15:28:13;98534.53;;;34.84
40199;BMP280;25906;43.536;26.068;2022-07-23T15:30:59;98526.22;;;34.80
40199;BMP280;25906;43.536;26.068;2022-07-23T15:33:44;98530.03;;;34.71
40199;BMP280;25906;43.536;26.068;2022-07-23T15:36:30;98532.38;;;34.65
40199;BMP280;25906;43.536;26.068;2022-07-23T15:39:16;98523.72;;;34.50
40199;BMP280;25906;43.536;26.068;2022-07-23T15:42:02;98527.47;;;34.43
40199;BMP280;25906;43.536;26.068;2022-07-23T15:44:48;98527.22;;;34.29
40199;BMP280;25906;43.536;26.068;2022-07-23T15:47:34;98528.88;;;34.20
40199;BMP280;25906;43.536;26.068;2022-07-23T15:50:20;98524.72;;;34.19
40199;BMP280;25906;43.536;26.068;2022-07-23T15:53:06;98526.84;;;34.18
40199;BMP280;25906;43.536;26.068;2022-07-23T15:55:52;98520.06;;;34.09
40199;BMP280;25906;43.536;26.068;2022-07-23T15:58:38;98528.28;;;33.93
40199;BMP280;25906;43.536;26.068;2022-07-23T16:01:24;98520.22;;;33.81
40199;BMP280;25906;43.536;26.068;2022-07-23T16:04:10;98515.78;;;33.64
40199;BMP280;25906;43.536;26.068;2022-07-23T16:06:56;98529.34;;;33.56
40199;BMP280;25906;43.536;26.068;2022-07-23T16:09:44;98530.94;;;33.49
40199;BMP280;25906;43.536;26.068;2022-07-23T16:12:29;98522.06;;;33.41
40199;BMP280;25906;43.536;26.068;2022-07-23T16:15:15;98523.69;;;33.34